Terminal Aerodrome Forecast
Issued by NWS Atlanta, GA

Home | Current Version | Previous Version | Text Only | Print | Product List | Glossary On
Versions: 1 2 3 4 5 6 7 8 9 10 11 12 13 14 15 16 17 18 19 20 21 22 23 24 25 26 27
000
FTUS42 KFFC 020343 CCA
TAFCSG
TAF COR
KCSG 020343Z 0203/0224 VRB03KT P6SM VCSH SCT050 BKN100
      TEMPO 0203/0206 4SM TSRA FEW020 BKN030CB
     FM020800 26005KT P6SM BKN015 BKN050
     FM021400 27008KT P6SM BKN050
     FM021600 26007KT P6SM VCSH BKN050 PROB30 0216/0222 6SM TSRA
      BKN035CB=

USA.gov is the U.S. government's official web portal to all federal, state and local government web resources and services.